sensor_id;sensor_type;location;lat;lon;timestamp;P1;durP1;ratioP1;P2;durP2;ratioP2
61204;SDS011;47068;55.780;37.520;2022-08-21T00:01:33;49.28;;;20.48;;
61204;SDS011;47068;55.780;37.520;2022-08-21T00:04:03;44.25;;;19.83;;
61204;SDS011;47068;55.780;37.520;2022-08-21T00:06:30;48.63;;;23.15;;
61204;SDS011;47068;55.780;37.520;2022-08-21T00:08:57;47.30;;;23.17;;
61204;SDS011;47068;55.780;37.520;2022-08-21T00:11:23;44.17;;;22.08;;
61204;SDS011;47068;55.780;37.520;2022-08-21T00:13:48;50.97;;;21.23;;
61204;SDS011;47068;55.780;37.520;2022-08-21T00:16:14;47.85;;;21.70;;
61204;SDS011;47068;55.780;37.520;2022-08-21T00:18:39;43.35;;;21.67;;
61204;SDS011;47068;55.780;37.520;2022-08-21T00:23:32;47.28;;;20.40;;
61204;SDS011;47068;55.780;37.520;2022-08-21T00:25:59;42.78;;;20.60;;
61204;SDS011;47068;55.780;37.520;2022-08-21T00:28:24;55.38;;;21.67;;
61204;SDS011;47068;55.780;37.520;2022-08-21T00:30:50;43.03;;;21.60;;
61204;SDS011;47068;55.780;37.520;2022-08-21T00:33:15;40.67;;;20.45;;
61204;SDS011;47068;55.780;37.520;2022-08-21T00:35:41;40.72;;;22.10;;
61204;SDS011;47068;55.780;37.520;2022-08-21T00:38:08;46.90;;;22.63;;
61204;SDS011;47068;55.780;37.520;2022-08-21T00:40:40;44.42;;;23.35;;
61204;SDS011;47068;55.780;37.520;2022-08-21T00:43:14;47.67;;;23.48;;
61204;SDS011;47068;55.780;37.520;2022-08-21T00:45:44;46.80;;;22.92;;
61204;SDS011;47068;55.780;37.520;2022-08-21T00:48:10;54.90;;;22.15;;
61204;SDS011;47068;55.780;37.520;2022-08-21T00:53:05;50.85;;;23.83;;
61204;SDS011;47068;55.780;37.520;2022-08-21T00:55:31;45.20;;;21.35;;
61204;SDS011;47068;55.780;37.520;2022-08-21T00:57:58;46.78;;;22.08;;
61204;SDS011;47068;55.780;37.520;2022-08-21T01:00:30;38.60;;;20.58;;
61204;SDS011;47068;55.780;37.520;2022-08-21T01:02:58;40.53;;;19.25;;
61204;SDS011;47068;55.780;37.520;2022-08-21T01:05:25;41.70;;;20.88;;
61204;SDS011;47068;55.780;37.520;2022-08-21T01:07:51;42.03;;;19.80;;
61204;SDS011;47068;55.780;37.520;2022-08-21T01:12:43;44.67;;;20.20;;
61204;SDS011;47068;55.780;37.520;2022-08-21T01:15:09;44.10;;;20.50;;
61204;SDS011;47068;55.780;37.520;2022-08-21T01:17:36;40.97;;;22.67;;
61204;SDS011;47068;55.780;37.520;2022-08-21T01:20:03;42.25;;;20.73;;
61204;SDS011;47068;55.780;37.520;2022-08-21T01:22:32;36.55;;;18.85;;
61204;SDS011;47068;55.780;37.520;2022-08-21T01:24:58;35.25;;;18.02;;
61204;SDS011;47068;55.780;37.520;2022-08-21T01:27:24;41.47;;;20.05;;
61204;SDS011;47068;55.780;37.520;2022-08-21T01:32:27;43.65;;;19.35;;
61204;SDS011;47068;55.780;37.520;2022-08-21T01:34:53;37.35;;;19.02;;
61204;SDS011;47068;55.780;37.520;2022-08-21T01:37:19;39.42;;;19.48;;
61204;SDS011;47068;55.780;37.520;2022-08-21T01:39:46;33.40;;;17.75;;
61204;SDS011;47068;55.780;37.520;2022-08-21T01:42:13;45.65;;;18.75;;
61204;SDS011;47068;55.780;37.520;2022-08-21T01:44:39;38.97;;;17.67;;
61204;SDS011;47068;55.780;37.520;2022-08-21T01:47:07;39.72;;;19.20;;
61204;SDS011;47068;55.780;37.520;2022-08-21T01:49:34;34.45;;;17.77;;
61204;SDS011;47068;55.780;37.520;2022-08-21T01:52:00;34.45;;;18.05;;
61204;SDS011;47068;55.780;37.520;2022-08-21T01:54:26;36.35;;;17.60;;
61204;SDS011;47068;55.780;37.520;2022-08-21T01:56:52;39.00;;;17.80;;
61204;SDS011;47068;55.780;37.520;2022-08-21T01:59:19;32.92;;;17.25;;
61204;SDS011;47068;55.780;37.520;2022-08-21T02:01:46;34.65;;;17.63;;
61204;SDS011;47068;55.780;37.520;2022-08-21T02:04:11;37.10;;;18.17;;
61204;SDS011;47068;55.780;37.520;2022-08-21T02:06:37;36.30;;;17.20;;
61204;SDS011;47068;55.780;37.520;2022-08-21T02:11:30;36.53;;;16.67;;
61204;SDS011;47068;55.780;37.520;2022-08-21T02:16:21;34.95;;;16.65;;
61204;SDS011;47068;55.780;37.520;2022-08-21T02:18:47;36.40;;;16.77;;
61204;SDS011;47068;55.780;37.520;2022-08-21T02:21:12;36.30;;;16.45;;
61204;SDS011;47068;55.780;37.520;2022-08-21T02:23:38;33.22;;;16.02;;
61204;SDS011;47068;55.780;37.520;2022-08-21T02:26:05;33.45;;;15.05;;
61204;SDS011;47068;55.780;37.520;2022-08-21T02:28:32;30.30;;;15.75;;
61204;SDS011;47068;55.780;37.520;2022-08-21T02:30:57;35.00;;;16.80;;
61204;SDS011;47068;55.780;37.520;2022-08-21T02:33:23;35.28;;;16.23;;
61204;SDS011;47068;55.780;37.520;2022-08-21T02:35:51;37.47;;;16.70;;
61204;SDS011;47068;55.780;37.520;2022-08-21T02:38:19;30.67;;;15.52;;
61204;SDS011;47068;55.780;37.520;2022-08-21T02:40:52;33.92;;;15.63;;
61204;SDS011;47068;55.780;37.520;2022-08-21T02:43:19;33.63;;;15.95;;
61204;SDS011;47068;55.780;37.520;2022-08-21T02:45:47;31.80;;;15.30;;
61204;SDS011;47068;55.780;37.520;2022-08-21T02:48:15;33.17;;;16.50;;
61204;SDS011;47068;55.780;37.520;2022-08-21T02:50:44;30.27;;;15.55;;
61204;SDS011;47068;55.780;37.520;2022-08-21T02:53:12;36.70;;;15.52;;
61204;SDS011;47068;55.780;37.520;2022-08-21T02:55:41;32.92;;;15.32;;
61204;SDS011;47068;55.780;37.520;2022-08-21T02:58:08;33.30;;;16.27;;
61204;SDS011;47068;55.780;37.520;2022-08-21T03:00:34;42.20;;;15.73;;
61204;SDS011;47068;55.780;37.520;2022-08-21T03:03:01;30.75;;;15.13;;
61204;SDS011;47068;55.780;37.520;2022-08-21T03:05:28;34.22;;;16.30;;
61204;SDS011;47068;55.780;37.520;2022-08-21T03:07:56;33.40;;;16.45;;
61204;SDS011;47068;55.780;37.520;2022-08-21T03:10:23;38.00;;;16.35;;
61204;SDS011;47068;55.780;37.520;2022-08-21T03:12:50;39.60;;;15.13;;
61204;SDS011;47068;55.780;37.520;2022-08-21T03:15:17;36.65;;;14.93;;
61204;SDS011;47068;55.780;37.520;2022-08-21T03:17:45;34.88;;;16.38;;
61204;SDS011;47068;55.780;37.520;2022-08-21T03:20:11;32.15;;;15.60;;
61204;SDS011;47068;55.780;37.520;2022-08-21T03:22:39;28.15;;;14.30;;
61204;SDS011;47068;55.780;37.520;2022-08-21T03:25:04;37.28;;;16.63;;
61204;SDS011;47068;55.780;37.520;2022-08-21T03:27:30;32.88;;;15.32;;
61204;SDS011;47068;55.780;37.520;2022-08-21T03:29:56;36.03;;;16.02;;
61204;SDS011;47068;55.780;37.520;2022-08-21T03:34:47;37.60;;;16.40;;
61204;SDS011;47068;55.780;37.520;2022-08-21T03:37:13;32.42;;;14.88;;
61204;SDS011;47068;55.780;37.520;2022-08-21T03:39:40;33.75;;;16.30;;
61204;SDS011;47068;55.780;37.520;2022-08-21T03:42:07;30.20;;;15.32;;
61204;SDS011;47068;55.780;37.520;2022-08-21T03:44:32;35.85;;;16.95;;
61204;SDS011;47068;55.780;37.520;2022-08-21T03:46:58;32.95;;;17.20;;
61204;SDS011;47068;55.780;37.520;2022-08-21T03:49:24;35.78;;;15.68;;
61204;SDS011;47068;55.780;37.520;2022-08-21T03:51:50;34.65;;;17.15;;
61204;SDS011;47068;55.780;37.520;2022-08-21T03:54:16;36.00;;;17.75;;
61204;SDS011;47068;55.780;37.520;2022-08-21T03:56:59;39.25;;;17.30;;
61204;SDS011;47068;55.780;37.520;2022-08-21T03:59:24;38.67;;;17.42;;
61204;SDS011;47068;55.780;37.520;2022-08-21T04:02:00;33.55;;;15.98;;
61204;SDS011;47068;55.780;37.520;2022-08-21T04:04:27;28.98;;;15.38;;
61204;SDS011;47068;55.780;37.520;2022-08-21T04:09:19;35.60;;;16.43;;
61204;SDS011;47068;55.780;37.520;2022-08-21T04:11:45;33.13;;;16.77;;
61204;SDS011;47068;55.780;37.520;2022-08-21T04:14:12;32.28;;;15.57;;
61204;SDS011;47068;55.780;37.520;2022-08-21T04:16:39;43.88;;;17.00;;
61204;SDS011;47068;55.780;37.520;2022-08-21T04:21:30;31.33;;;15.25;;
61204;SDS011;47068;55.780;37.520;2022-08-21T04:23:56;33.40;;;15.30;;
61204;SDS011;47068;55.780;37.520;2022-08-21T04:26:23;40.65;;;17.63;;
61204;SDS011;47068;55.780;37.520;2022-08-21T04:28:50;32.40;;;16.50;;
61204;SDS011;47068;55.780;37.520;2022-08-21T04:31:16;31.38;;;16.95;;
61204;SDS011;47068;55.780;37.520;2022-08-21T04:33:41;30.55;;;16.23;;
61204;SDS011;47068;55.780;37.520;2022-08-21T04:36:07;36.20;;;16.83;;
61204;SDS011;47068;55.780;37.520;2022-08-21T04:38:33;32.63;;;16.88;;
61204;SDS011;47068;55.780;37.520;2022-08-21T04:40:58;37.35;;;18.33;;
61204;SDS011;47068;55.780;37.520;2022-08-21T04:43:24;38.88;;;17.35;;
61204;SDS011;47068;55.780;37.520;2022-08-21T04:45:50;45.10;;;18.40;;
61204;SDS011;47068;55.780;37.520;2022-08-21T04:48:18;38.28;;;18.25;;
61204;SDS011;47068;55.780;37.520;2022-08-21T04:50:49;40.28;;;17.77;;
61204;SDS011;47068;55.780;37.520;2022-08-21T04:53:18;42.40;;;17.80;;
61204;SDS011;47068;55.780;37.520;2022-08-21T04:55:48;32.92;;;17.40;;
61204;SDS011;47068;55.780;37.520;2022-08-21T04:58:16;37.28;;;19.15;;
61204;SDS011;47068;55.780;37.520;2022-08-21T05:00:47;42.58;;;18.17;;
61204;SDS011;47068;55.780;37.520;2022-08-21T05:03:16;37.88;;;18.63;;
61204;SDS011;47068;55.780;37.520;2022-08-21T05:05:46;41.88;;;19.63;;
61204;SDS011;47068;55.780;37.520;2022-08-21T05:08:13;39.88;;;18.23;;
61204;SDS011;47068;55.780;37.520;2022-08-21T05:10:42;37.33;;;18.88;;
61204;SDS011;47068;55.780;37.520;2022-08-21T05:13:09;39.30;;;19.13;;
61204;SDS011;47068;55.780;37.520;2022-08-21T05:15:37;38.90;;;19.27;;
61204;SDS011;47068;55.780;37.520;2022-08-21T05:18:03;35.53;;;18.60;;
61204;SDS011;47068;55.780;37.520;2022-08-21T05:20:29;40.22;;;19.08;;
61204;SDS011;47068;55.780;37.520;2022-08-21T05:22:56;37.63;;;19.02;;
61204;SDS011;47068;55.780;37.520;2022-08-21T05:25:22;37.78;;;20.45;;
61204;SDS011;47068;55.780;37.520;2022-08-21T05:30:13;36.00;;;19.27;;
61204;SDS011;47068;55.780;37.520;2022-08-21T05:35:04;40.65;;;19.85;;
61204;SDS011;47068;55.780;37.520;2022-08-21T05:37:31;39.28;;;20.05;;
61204;SDS011;47068;55.780;37.520;2022-08-21T05:39:56;43.70;;;21.40;;
61204;SDS011;47068;55.780;37.520;2022-08-21T05:44:48;44.28;;;21.50;;
61204;SDS011;47068;55.780;37.520;2022-08-21T05:49:39;39.17;;;20.95;;
61204;SDS011;47068;55.780;37.520;2022-08-21T05:54:29;40.13;;;20.05;;
61204;SDS011;47068;55.780;37.520;2022-08-21T05:56:56;45.85;;;22.13;;
61204;SDS011;47068;55.780;37.520;2022-08-21T05:59:21;46.00;;;21.20;;
61204;SDS011;47068;55.780;37.520;2022-08-21T06:04:12;40.45;;;21.20;;
61204;SDS011;47068;55.780;37.520;2022-08-21T06:09:04;37.13;;;21.02;;
61204;SDS011;47068;55.780;37.520;2022-08-21T06:11:30;44.97;;;21.70;;
61204;SDS011;47068;55.780;37.520;2022-08-21T06:13:56;38.67;;;22.10;;
61204;SDS011;47068;55.780;37.520;2022-08-21T06:16:22;42.53;;;23.13;;
61204;SDS011;47068;55.780;37.520;2022-08-21T06:18:48;42.63;;;23.20;;
61204;SDS011;47068;55.780;37.520;2022-08-21T06:21:14;43.97;;;23.20;;
61204;SDS011;47068;55.780;37.520;2022-08-21T06:23:40;41.70;;;22.58;;
61204;SDS011;47068;55.780;37.520;2022-08-21T06:26:07;37.25;;;21.75;;
61204;SDS011;47068;55.780;37.520;2022-08-21T06:28:33;39.55;;;22.52;;
61204;SDS011;47068;55.780;37.520;2022-08-21T06:30:59;37.85;;;22.02;;
61204;SDS011;47068;55.780;37.520;2022-08-21T06:33:26;40.22;;;22.58;;
61204;SDS011;47068;55.780;37.520;2022-08-21T06:35:51;37.08;;;22.23;;
61204;SDS011;47068;55.780;37.520;2022-08-21T06:38:17;41.03;;;22.95;;
61204;SDS011;47068;55.780;37.520;2022-08-21T06:40:43;38.95;;;22.17;;
61204;SDS011;47068;55.780;37.520;2022-08-21T06:43:10;43.58;;;23.70;;
61204;SDS011;47068;55.780;37.520;2022-08-21T06:45:37;40.53;;;24.02;;
61204;SDS011;47068;55.780;37.520;2022-08-21T06:48:03;39.33;;;21.42;;
61204;SDS011;47068;55.780;37.520;2022-08-21T06:50:29;39.63;;;23.92;;
61204;SDS011;47068;55.780;37.520;2022-08-21T06:53:03;42.53;;;24.05;;
61204;SDS011;47068;55.780;37.520;2022-08-21T06:55:30;39.38;;;24.10;;
61204;SDS011;47068;55.780;37.520;2022-08-21T06:57:56;41.22;;;24.67;;
61204;SDS011;47068;55.780;37.520;2022-08-21T07:00:21;40.40;;;23.88;;
61204;SDS011;47068;55.780;37.520;2022-08-21T07:02:47;39.08;;;23.45;;
61204;SDS011;47068;55.780;37.520;2022-08-21T07:05:13;38.22;;;23.25;;
61204;SDS011;47068;55.780;37.520;2022-08-21T07:07:39;38.72;;;24.30;;
61204;SDS011;47068;55.780;37.520;2022-08-21T07:10:04;41.17;;;23.40;;
61204;SDS011;47068;55.780;37.520;2022-08-21T07:12:30;39.42;;;23.00;;
61204;SDS011;47068;55.780;37.520;2022-08-21T07:14:56;42.70;;;23.02;;
61204;SDS011;47068;55.780;37.520;2022-08-21T07:17:21;38.20;;;22.45;;
61204;SDS011;47068;55.780;37.520;2022-08-21T07:19:47;38.65;;;23.45;;
61204;SDS011;47068;55.780;37.520;2022-08-21T07:22:12;37.90;;;23.70;;
61204;SDS011;47068;55.780;37.520;2022-08-21T07:24:41;36.15;;;21.98;;
61204;SDS011;47068;55.780;37.520;2022-08-21T07:27:07;41.45;;;21.90;;
61204;SDS011;47068;55.780;37.520;2022-08-21T07:29:32;37.00;;;22.83;;
61204;SDS011;47068;55.780;37.520;2022-08-21T07:31:58;38.80;;;22.63;;
61204;SDS011;47068;55.780;37.520;2022-08-21T07:34:23;30.80;;;22.17;;
61204;SDS011;47068;55.780;37.520;2022-08-21T07:36:49;32.88;;;20.02;;
61204;SDS011;47068;55.780;37.520;2022-08-21T07:39:14;30.42;;;18.88;;
61204;SDS011;47068;55.780;37.520;2022-08-21T07:41:40;38.00;;;21.13;;
61204;SDS011;47068;55.780;37.520;2022-08-21T07:44:05;36.30;;;21.90;;
61204;SDS011;47068;55.780;37.520;2022-08-21T07:46:31;35.03;;;20.33;;
61204;SDS011;47068;55.780;37.520;2022-08-21T07:48:56;35.05;;;21.08;;
61204;SDS011;47068;55.780;37.520;2022-08-21T07:51:24;37.67;;;22.00;;
61204;SDS011;47068;55.780;37.520;2022-08-21T07:53:53;32.78;;;20.52;;
61204;SDS011;47068;55.780;37.520;2022-08-21T07:56:20;41.67;;;21.08;;
61204;SDS011;47068;55.780;37.520;2022-08-21T07:58:46;35.13;;;20.88;;
61204;SDS011;47068;55.780;37.520;2022-08-21T08:01:12;34.53;;;19.67;;
61204;SDS011;47068;55.780;37.520;2022-08-21T08:03:38;33.92;;;18.92;;
61204;SDS011;47068;55.780;37.520;2022-08-21T08:06:04;41.72;;;19.75;;
61204;SDS011;47068;55.780;37.520;2022-08-21T08:08:33;28.75;;;16.17;;
61204;SDS011;47068;55.780;37.520;2022-08-21T08:10:59;34.03;;;20.52;;
61204;SDS011;47068;55.780;37.520;2022-08-21T08:13:26;27.58;;;17.17;;
61204;SDS011;47068;55.780;37.520;2022-08-21T08:15:52;31.57;;;18.90;;
61204;SDS011;47068;55.780;37.520;2022-08-21T08:18:17;31.15;;;19.65;;
61204;SDS011;47068;55.780;37.520;2022-08-21T08:20:43;33.92;;;19.88;;
61204;SDS011;47068;55.780;37.520;2022-08-21T08:23:10;38.33;;;20.42;;
61204;SDS011;47068;55.780;37.520;2022-08-21T08:25:36;31.15;;;17.65;;
61204;SDS011;47068;55.780;37.520;2022-08-21T08:28:03;32.97;;;17.58;;
61204;SDS011;47068;55.780;37.520;2022-08-21T08:30:30;28.75;;;15.63;;
61204;SDS011;47068;55.780;37.520;2022-08-21T08:32:56;34.33;;;16.20;;
61204;SDS011;47068;55.780;37.520;2022-08-21T08:35:22;26.55;;;14.05;;
61204;SDS011;47068;55.780;37.520;2022-08-21T08:37:48;25.98;;;13.35;;
61204;SDS011;47068;55.780;37.520;2022-08-21T08:40:31;27.50;;;13.23;;
61204;SDS011;47068;55.780;37.520;2022-08-21T08:43:01;29.08;;;13.05;;
61204;SDS011;47068;55.780;37.520;2022-08-21T08:45:26;23.60;;;11.82;;
61204;SDS011;47068;55.780;37.520;2022-08-21T08:47:58;26.48;;;13.40;;
61204;SDS011;47068;55.780;37.520;2022-08-21T08:53:20;28.25;;;13.52;;
61204;SDS011;47068;55.780;37.520;2022-08-21T08:55:51;24.10;;;12.88;;
61204;SDS011;47068;55.780;37.520;2022-08-21T08:58:24;21.58;;;11.48;;
61204;SDS011;47068;55.780;37.520;2022-08-21T09:00:56;25.10;;;10.70;;
61204;SDS011;47068;55.780;37.520;2022-08-21T09:03:22;19.42;;;10.90;;
61204;SDS011;47068;55.780;37.520;2022-08-21T09:05:56;20.77;;;11.73;;
61204;SDS011;47068;55.780;37.520;2022-08-21T09:08:49;22.77;;;9.32;;
61204;SDS011;47068;55.780;37.520;2022-08-21T09:24:38;20.05;;;8.30;;
61204;SDS011;47068;55.780;37.520;2022-08-21T09:27:13;21.73;;;9.43;;
61204;SDS011;47068;55.780;37.520;2022-08-21T09:29:42;21.20;;;8.90;;
61204;SDS011;47068;55.780;37.520;2022-08-21T09:32:29;24.83;;;9.02;;
61204;SDS011;47068;55.780;37.520;2022-08-21T09:34:57;23.02;;;9.00;;
61204;SDS011;47068;55.780;37.520;2022-08-21T09:37:26;18.80;;;9.15;;
61204;SDS011;47068;55.780;37.520;2022-08-21T09:39:54;22.30;;;8.60;;
61204;SDS011;47068;55.780;37.520;2022-08-21T09:42:28;20.15;;;8.38;;
61204;SDS011;47068;55.780;37.520;2022-08-21T09:45:07;15.98;;;7.78;;
61204;SDS011;47068;55.780;37.520;2022-08-21T09:47:32;18.63;;;8.52;;
61204;SDS011;47068;55.780;37.520;2022-08-21T09:50:07;23.88;;;9.52;;
61204;SDS011;47068;55.780;37.520;2022-08-21T09:52:48;18.23;;;8.23;;
61204;SDS011;47068;55.780;37.520;2022-08-21T09:55:29;36.17;;;11.40;;
61204;SDS011;47068;55.780;37.520;2022-08-21T09:58:17;16.40;;;7.60;;
61204;SDS011;47068;55.780;37.520;2022-08-21T10:00:45;19.13;;;8.43;;
61204;SDS011;47068;55.780;37.520;2022-08-21T10:03:12;20.25;;;8.43;;
61204;SDS011;47068;55.780;37.520;2022-08-21T10:05:52;16.20;;;8.55;;
61204;SDS011;47068;55.780;37.520;2022-08-21T10:08:30;19.50;;;7.38;;
61204;SDS011;47068;55.780;37.520;2022-08-21T10:11:01;16.50;;;8.05;;
61204;SDS011;47068;55.780;37.520;2022-08-21T10:19:32;16.77;;;7.93;;
61204;SDS011;47068;55.780;37.520;2022-08-21T10:24:38;20.75;;;8.82;;
61204;SDS011;47068;55.780;37.520;2022-08-21T10:48:37;8.60;;;5.50;;
61204;SDS011;47068;55.780;37.520;2022-08-21T10:56:51;16.92;;;6.25;;
61204;SDS011;47068;55.780;37.520;2022-08-21T10:59:39;13.88;;;5.65;;
61204;SDS011;47068;55.780;37.520;2022-08-21T11:02:13;12.57;;;6.18;;
61204;SDS011;47068;55.780;37.520;2022-08-21T11:04:45;10.65;;;5.68;;
61204;SDS011;47068;55.780;37.520;2022-08-21T11:07:21;12.38;;;5.47;;
61204;SDS011;47068;55.780;37.520;2022-08-21T11:09:54;12.77;;;5.85;;
61204;SDS011;47068;55.780;37.520;2022-08-21T11:17:22;11.85;;;4.53;;
61204;SDS011;47068;55.780;37.520;2022-08-21T11:20:15;9.82;;;3.75;;
61204;SDS011;47068;55.780;37.520;2022-08-21T11:25:16;6.28;;;3.20;;
61204;SDS011;47068;55.780;37.520;2022-08-21T11:28:00;8.07;;;3.00;;
61204;SDS011;47068;55.780;37.520;2022-08-21T11:30:47;14.77;;;3.65;;
61204;SDS011;47068;55.780;37.520;2022-08-21T11:33:52;10.68;;;3.88;;
61204;SDS011;47068;55.780;37.520;2022-08-21T11:41:34;8.18;;;4.50;;
61204;SDS011;47068;55.780;37.520;2022-08-21T11:52:30;20.77;;;7.18;;
61204;SDS011;47068;55.780;37.520;2022-08-21T11:58:00;16.90;;;6.93;;
61204;SDS011;47068;55.780;37.520;2022-08-21T12:00:52;16.95;;;7.00;;
61204;SDS011;47068;55.780;37.520;2022-08-21T12:05:54;19.70;;;7.97;;
61204;SDS011;47068;55.780;37.520;2022-08-21T12:11:01;14.27;;;6.55;;
61204;SDS011;47068;55.780;37.520;2022-08-21T12:13:30;22.10;;;7.82;;
61204;SDS011;47068;55.780;37.520;2022-08-21T12:16:33;16.17;;;6.32;;
61204;SDS011;47068;55.780;37.520;2022-08-21T12:21:33;13.68;;;6.20;;
61204;SDS011;47068;55.780;37.520;2022-08-21T12:24:36;14.52;;;5.65;;
61204;SDS011;47068;55.780;37.520;2022-08-21T12:27:23;13.32;;;6.03;;
61204;SDS011;47068;55.780;37.520;2022-08-21T12:29:58;10.88;;;5.18;;
61204;SDS011;47068;55.780;37.520;2022-08-21T12:35:20;11.48;;;5.20;;
61204;SDS011;47068;55.780;37.520;2022-08-21T12:37:52;20.92;;;5.78;;
61204;SDS011;47068;55.780;37.520;2022-08-21T12:40:30;13.10;;;5.18;;
61204;SDS011;47068;55.780;37.520;2022-08-21T12:43:19;12.93;;;6.13;;
61204;SDS011;47068;55.780;37.520;2022-08-21T12:45:48;12.35;;;4.78;;
61204;SDS011;47068;55.780;37.520;2022-08-21T12:51:13;9.43;;;4.13;;
61204;SDS011;47068;55.780;37.520;2022-08-21T12:56:20;9.35;;;4.45;;
61204;SDS011;47068;55.780;37.520;2022-08-21T12:58:54;10.40;;;5.00;;
61204;SDS011;47068;55.780;37.520;2022-08-21T13:01:31;12.10;;;4.38;;
61204;SDS011;47068;55.780;37.520;2022-08-21T13:04:19;12.65;;;4.60;;
61204;SDS011;47068;55.780;37.520;2022-08-21T13:07:08;11.85;;;4.97;;
61204;SDS011;47068;55.780;37.520;2022-08-21T13:09:47;11.77;;;4.45;;
61204;SDS011;47068;55.780;37.520;2022-08-21T13:12:17;13.13;;;5.30;;
61204;SDS011;47068;55.780;37.520;2022-08-21T13:14:45;9.40;;;4.90;;
61204;SDS011;47068;55.780;37.520;2022-08-21T13:17:12;12.05;;;5.13;;
61204;SDS011;47068;55.780;37.520;2022-08-21T13:19:40;9.00;;;4.68;;
61204;SDS011;47068;55.780;37.520;2022-08-21T13:22:11;10.55;;;4.20;;
61204;SDS011;47068;55.780;37.520;2022-08-21T13:24:47;8.82;;;3.47;;
61204;SDS011;47068;55.780;37.520;2022-08-21T13:27:23;10.45;;;4.53;;
61204;SDS011;47068;55.780;37.520;2022-08-21T13:29:49;8.75;;;3.75;;
61204;SDS011;47068;55.780;37.520;2022-08-21T13:32:37;10.63;;;3.20;;
61204;SDS011;47068;55.780;37.520;2022-08-21T13:35:17;12.02;;;3.50;;
61204;SDS011;47068;55.780;37.520;2022-08-21T13:37:46;10.88;;;3.90;;
61204;SDS011;47068;55.780;37.520;2022-08-21T13:40:14;16.40;;;4.40;;
61204;SDS011;47068;55.780;37.520;2022-08-21T13:42:52;10.23;;;4.20;;
61204;SDS011;47068;55.780;37.520;2022-08-21T13:45:23;9.15;;;4.40;;
61204;SDS011;47068;55.780;37.520;2022-08-21T13:47:56;11.05;;;4.05;;
61204;SDS011;47068;55.780;37.520;2022-08-21T13:50:23;16.88;;;5.07;;
61204;SDS011;47068;55.780;37.520;2022-08-21T13:52:58;9.60;;;4.38;;
61204;SDS011;47068;55.780;37.520;2022-08-21T13:55:35;8.73;;;4.38;;
61204;SDS011;47068;55.780;37.520;2022-08-21T13:58:05;12.10;;;4.22;;
61204;SDS011;47068;55.780;37.520;2022-08-21T14:00:32;13.77;;;4.57;;
61204;SDS011;47068;55.780;37.520;2022-08-21T14:03:05;10.23;;;4.63;;
61204;SDS011;47068;55.780;37.520;2022-08-21T14:05:34;11.88;;;4.10;;
61204;SDS011;47068;55.780;37.520;2022-08-21T14:10:42;11.95;;;4.40;;
61204;SDS011;47068;55.780;37.520;2022-08-21T14:13:47;12.52;;;3.97;;
61204;SDS011;47068;55.780;37.520;2022-08-21T14:18:51;11.13;;;4.57;;
61204;SDS011;47068;55.780;37.520;2022-08-21T14:21:33;13.63;;;3.85;;
61204;SDS011;47068;55.780;37.520;2022-08-21T14:29:15;10.10;;;2.10;;
61204;SDS011;47068;55.780;37.520;2022-08-21T14:31:43;5.72;;;2.20;;
61204;SDS011;47068;55.780;37.520;2022-08-21T14:34:14;7.13;;;2.42;;
61204;SDS011;47068;55.780;37.520;2022-08-21T14:36:42;6.88;;;2.03;;
61204;SDS011;47068;55.780;37.520;2022-08-21T14:39:08;4.47;;;1.95;;
61204;SDS011;47068;55.780;37.520;2022-08-21T14:41:33;16.58;;;2.38;;
61204;SDS011;47068;55.780;37.520;2022-08-21T14:43:59;4.47;;;1.90;;
61204;SDS011;47068;55.780;37.520;2022-08-21T14:46:26;6.43;;;2.25;;
61204;SDS011;47068;55.780;37.520;2022-08-21T14:48:54;5.82;;;1.95;;
61204;SDS011;47068;55.780;37.520;2022-08-21T14:51:20;5.20;;;1.73;;
61204;SDS011;47068;55.780;37.520;2022-08-21T14:53:46;7.25;;;2.53;;
61204;SDS011;47068;55.780;37.520;2022-08-21T14:56:13;3.30;;;1.80;;
61204;SDS011;47068;55.780;37.520;2022-08-21T14:58:41;4.25;;;1.77;;
61204;SDS011;47068;55.780;37.520;2022-08-21T15:01:09;7.00;;;1.80;;
61204;SDS011;47068;55.780;37.520;2022-08-21T15:03:37;3.38;;;1.73;;
61204;SDS011;47068;55.780;37.520;2022-08-21T15:06:03;5.30;;;1.58;;
61204;SDS011;47068;55.780;37.520;2022-08-21T15:08:30;2.97;;;1.23;;
61204;SDS011;47068;55.780;37.520;2022-08-21T15:10:57;4.35;;;1.52;;
61204;SDS011;47068;55.780;37.520;2022-08-21T15:13:23;6.30;;;1.50;;
61204;SDS011;47068;55.780;37.520;2022-08-21T15:15:49;4.40;;;1.58;;
61204;SDS011;47068;55.780;37.520;2022-08-21T15:18:18;3.15;;;1.27;;
61204;SDS011;47068;55.780;37.520;2022-08-21T15:20:44;4.75;;;1.58;;
61204;SDS011;47068;55.780;37.520;2022-08-21T15:23:10;6.10;;;1.50;;
61204;SDS011;47068;55.780;37.520;2022-08-21T15:25:45;4.85;;;1.50;;
61204;SDS011;47068;55.780;37.520;2022-08-21T15:28:13;4.20;;;1.30;;
61204;SDS011;47068;55.780;37.520;2022-08-21T15:30:41;4.70;;;1.15;;
61204;SDS011;47068;55.780;37.520;2022-08-21T15:33:07;3.00;;;1.70;;
61204;SDS011;47068;55.780;37.520;2022-08-21T15:35:33;8.18;;;1.63;;
61204;SDS011;47068;55.780;37.520;2022-08-21T15:38:00;5.55;;;1.30;;
61204;SDS011;47068;55.780;37.520;2022-08-21T15:40:25;3.65;;;1.20;;
61204;SDS011;47068;55.780;37.520;2022-08-21T15:42:53;6.13;;;1.42;;
61204;SDS011;47068;55.780;37.520;2022-08-21T15:45:23;6.95;;;1.38;;
61204;SDS011;47068;55.780;37.520;2022-08-21T15:47:49;6.18;;;1.40;;
61204;SDS011;47068;55.780;37.520;2022-08-21T15:50:15;3.10;;;1.30;;
61204;SDS011;47068;55.780;37.520;2022-08-21T15:52:40;4.13;;;1.48;;
61204;SDS011;47068;55.780;37.520;2022-08-21T15:55:06;5.70;;;1.35;;
61204;SDS011;47068;55.780;37.520;2022-08-21T15:57:33;2.83;;;1.05;;
61204;SDS011;47068;55.780;37.520;2022-08-21T16:00:07;3.17;;;1.17;;
61204;SDS011;47068;55.780;37.520;2022-08-21T16:02:38;2.63;;;0.98;;
61204;SDS011;47068;55.780;37.520;2022-08-21T16:05:09;6.78;;;1.73;;
61204;SDS011;47068;55.780;37.520;2022-08-21T16:07:37;5.68;;;1.45;;
61204;SDS011;47068;55.780;37.520;2022-08-21T16:10:06;6.55;;;1.13;;
61204;SDS011;47068;55.780;37.520;2022-08-21T16:12:33;3.83;;;1.10;;
61204;SDS011;47068;55.780;37.520;2022-08-21T16:15:04;2.92;;;1.45;;
61204;SDS011;47068;55.780;37.520;2022-08-21T16:17:33;5.60;;;1.67;;
61204;SDS011;47068;55.780;37.520;2022-08-21T16:20:00;4.80;;;1.65;;
61204;SDS011;47068;55.780;37.520;2022-08-21T16:22:31;2.22;;;1.10;;
61204;SDS011;47068;55.780;37.520;2022-08-21T16:24:57;3.58;;;1.20;;
61204;SDS011;47068;55.780;37.520;2022-08-21T16:27:22;5.57;;;1.30;;
61204;SDS011;47068;55.780;37.520;2022-08-21T16:29:50;4.03;;;1.10;;
61204;SDS011;47068;55.780;37.520;2022-08-21T16:32:16;9.88;;;1.02;;
61204;SDS011;47068;55.780;37.520;2022-08-21T16:34:44;3.53;;;1.10;;
61204;SDS011;47068;55.780;37.520;2022-08-21T16:37:12;6.90;;;1.25;;
61204;SDS011;47068;55.780;37.520;2022-08-21T16:39:38;3.47;;;1.25;;
61204;SDS011;47068;55.780;37.520;2022-08-21T16:42:04;4.82;;;1.20;;
61204;SDS011;47068;55.780;37.520;2022-08-21T16:44:31;2.33;;;1.00;;
61204;SDS011;47068;55.780;37.520;2022-08-21T16:46:58;2.40;;;1.10;;
61204;SDS011;47068;55.780;37.520;2022-08-21T16:49:24;2.10;;;1.00;;